createdAt,value
2017-09-11T00:02:20.115Z,1.60
2017-09-11T00:04:47.656Z,1.40
2017-09-11T00:07:16.907Z,2.20
2017-09-11T00:09:44.430Z,2.10
2017-09-11T00:12:11.928Z,1.70
2017-09-11T00:14:39.473Z,1.70
2017-09-11T00:17:06.980Z,1.70
2017-09-11T00:19:35.119Z,2.05
2017-09-11T00:22:02.664Z,1.70
2017-09-11T00:24:30.175Z,2.10
2017-09-11T00:26:57.692Z,1.58
2017-09-11T00:29:25.263Z,1.60
2017-09-11T00:31:52.852Z,2.28
2017-09-11T00:34:20.371Z,1.67
2017-09-11T00:36:49.340Z,1.80
2017-09-11T00:39:16.835Z,2.07
2017-09-11T00:41:44.357Z,1.50
2017-09-11T00:44:13.593Z,1.70
2017-09-11T00:46:41.107Z,2.33
2017-09-11T00:49:09.433Z,2.07
2017-09-11T00:51:37.024Z,3.57
2017-09-11T00:54:04.675Z,1.70
2017-09-11T00:56:37.006Z,1.60
2017-09-11T00:59:04.507Z,1.67
2017-09-11T01:01:33.079Z,1.60
2017-09-11T01:04:00.601Z,1.93
2017-09-11T01:06:28.118Z,1.47
2017-09-11T01:08:55.617Z,2.70
2017-09-11T01:11:23.135Z,2.12
2017-09-11T01:13:51.617Z,1.93
2017-09-11T01:16:19.132Z,2.00
2017-09-11T01:18:46.650Z,1.60
2017-09-11T01:21:14.316Z,1.50
2017-09-11T01:23:41.835Z,2.80
2017-09-11T01:26:09.335Z,1.50
2017-09-11T01:28:37.603Z,1.87
2017-09-11T01:31:05.642Z,1.73
2017-09-11T01:33:33.144Z,1.43
2017-09-11T01:36:00.651Z,2.00
2017-09-11T01:38:28.152Z,1.60
2017-09-11T01:40:56.460Z,1.48
2017-09-11T01:43:25.650Z,1.40
2017-09-11T01:45:53.160Z,1.35
2017-09-11T01:48:20.775Z,1.67
2017-09-11T01:50:49.968Z,1.83
2017-09-11T01:53:17.732Z,1.52
2017-09-11T01:55:45.227Z,1.10
2017-09-11T01:58:12.724Z,1.53
2017-09-11T02:00:40.251Z,1.20
2017-09-11T02:03:08.532Z,1.40
2017-09-11T02:05:36.052Z,1.30
2017-09-11T02:08:03.551Z,1.23
2017-09-11T02:10:31.053Z,1.40
2017-09-11T02:12:58.627Z,1.50
2017-09-11T02:15:26.176Z,1.70
2017-09-11T02:17:54.483Z,1.30
2017-09-11T02:20:22.303Z,1.52
2017-09-11T02:22:49.824Z,1.20
2017-09-11T02:25:17.643Z,1.27
2017-09-11T02:27:45.191Z,1.98
2017-09-11T02:30:12.747Z,1.50
2017-09-11T02:32:40.267Z,1.17
2017-09-11T02:35:07.780Z,1.27
2017-09-11T02:37:35.730Z,1.25
2017-09-11T02:40:03.272Z,1.50
2017-09-11T02:42:30.779Z,1.50
2017-09-11T02:44:58.342Z,1.17
2017-09-11T02:47:25.980Z,1.50
2017-09-11T02:49:53.504Z,2.87
2017-09-11T02:52:21.051Z,1.03
2017-09-11T02:54:49.560Z,1.50
2017-09-11T02:57:17.090Z,1.00
2017-09-11T02:59:44.584Z,1.20
2017-09-11T03:02:12.131Z,1.30
2017-09-11T03:04:39.659Z,1.47
2017-09-11T03:07:08.899Z,1.93
2017-09-11T03:09:36.411Z,2.13
2017-09-11T03:12:04.712Z,1.10
2017-09-11T03:14:32.251Z,1.50
2017-09-11T03:17:00.554Z,1.33
2017-09-11T03:19:28.899Z,1.27
2017-09-11T03:21:56.436Z,0.93
2017-09-11T03:24:24.407Z,1.47
2017-09-11T03:26:52.302Z,1.30
2017-09-11T03:29:23.381Z,1.93
2017-09-11T03:31:51.387Z,1.37
2017-09-11T03:34:18.947Z,1.37
2017-09-11T03:36:47.359Z,1.80
2017-09-11T03:39:15.646Z,1.17
2017-09-11T03:41:46.939Z,1.13
2017-09-11T03:44:14.439Z,1.37
2017-09-11T03:46:42.270Z,1.00
2017-09-11T03:49:09.779Z,1.10
2017-09-11T03:51:37.888Z,1.20
2017-09-11T03:54:05.400Z,1.07
2017-09-11T03:56:33.355Z,1.27
2017-09-11T03:59:01.193Z,1.00
2017-09-11T04:01:28.820Z,1.20
2017-09-11T04:03:56.336Z,1.40
2017-09-11T04:06:23.841Z,1.03
2017-09-11T04:08:51.352Z,0.90
2017-09-11T04:11:18.863Z,1.42
2017-09-11T04:13:46.366Z,1.50
2017-09-11T04:16:17.677Z,1.33
2017-09-11T04:18:45.186Z,0.90
2017-09-11T04:21:13.526Z,1.40
2017-09-11T04:23:41.028Z,1.53
2017-09-11T04:26:10.223Z,1.20
2017-09-11T04:28:37.719Z,1.00
2017-09-11T04:31:08.648Z,1.30
2017-09-11T04:33:37.048Z,1.27
2017-09-11T04:36:05.707Z,1.00
2017-09-11T04:38:33.249Z,1.00
2017-09-11T04:41:00.751Z,1.20
2017-09-11T04:43:28.251Z,1.17
2017-09-11T04:45:55.849Z,1.50
2017-09-11T04:48:23.948Z,1.60
2017-09-11T04:50:51.543Z,1.17
2017-09-11T04:53:19.135Z,1.63
2017-09-11T04:55:47.451Z,1.50
2017-09-11T04:58:15.042Z,1.00
2017-09-11T05:00:43.848Z,1.50
2017-09-11T05:03:11.358Z,1.12
2017-09-11T05:05:38.880Z,1.55
2017-09-11T05:08:08.067Z,1.40
2017-09-11T05:10:35.572Z,1.20
2017-09-11T05:13:03.123Z,2.28
2017-09-11T05:15:35.774Z,1.60
2017-09-11T05:18:04.072Z,1.57
2017-09-11T05:20:31.572Z,1.63
2017-09-11T05:22:59.318Z,1.93
2017-09-11T05:25:28.427Z,1.58
2017-09-11T05:27:55.993Z,1.73
2017-09-11T05:30:31.333Z,2.17
2017-09-11T05:32:59.236Z,2.20
2017-09-11T05:35:26.760Z,3.03
2017-09-11T05:37:54.262Z,5.70
2017-09-11T05:40:23.483Z,13.07
2017-09-11T05:42:51.018Z,5.07
2017-09-11T05:45:19.342Z,3.83
2017-09-11T05:47:47.428Z,2.90
2017-09-11T05:50:15.436Z,3.20
2017-09-11T05:52:42.968Z,4.10
2017-09-11T05:55:10.507Z,3.80
2017-09-11T05:57:38.899Z,4.03
2017-09-11T06:00:07.433Z,4.00
2017-09-11T06:02:35.615Z,5.03
2017-09-11T06:05:03.180Z,4.15
2017-09-11T06:07:32.008Z,4.40
2017-09-11T06:09:59.521Z,5.55
2017-09-11T06:12:27.484Z,4.00
2017-09-11T06:14:54.999Z,3.70
2017-09-11T06:17:22.499Z,6.00
2017-09-11T06:19:50.518Z,4.80
2017-09-11T06:22:18.063Z,4.50
2017-09-11T06:24:45.631Z,3.80
2017-09-11T06:27:13.155Z,4.10
2017-09-11T06:29:41.059Z,4.00
2017-09-11T06:32:17.339Z,3.87
2017-09-11T06:34:44.847Z,3.12
2017-09-11T06:37:12.367Z,5.97
2017-09-11T06:39:40.538Z,4.03
2017-09-11T06:42:08.036Z,3.90
2017-09-11T06:44:35.646Z,3.40
2017-09-11T06:47:03.160Z,4.20
2017-09-11T06:49:30.699Z,3.57
2017-09-11T06:51:58.268Z,4.63
2017-09-11T06:54:26.552Z,3.00
2017-09-11T06:56:54.098Z,3.33
2017-09-11T06:59:21.607Z,3.27
2017-09-11T07:01:52.251Z,3.08
2017-09-11T07:04:19.845Z,2.92
2017-09-11T07:06:47.391Z,2.90
2017-09-11T07:09:15.802Z,3.57
2017-09-11T07:11:43.338Z,3.75
2017-09-11T07:14:10.913Z,3.40
2017-09-11T07:16:38.450Z,3.50
2017-09-11T07:19:05.943Z,3.25
2017-09-11T07:21:33.554Z,3.22
2017-09-11T07:24:02.288Z,3.87
2017-09-11T07:26:29.840Z,3.80
2017-09-11T07:28:57.382Z,3.40
2017-09-11T07:31:25.835Z,2.97
2017-09-11T07:33:53.335Z,2.60
2017-09-11T07:36:21.688Z,2.90
2017-09-11T07:38:49.226Z,2.60
2017-09-11T07:41:17.584Z,2.80
2017-09-11T07:43:46.120Z,2.95
2017-09-11T07:46:13.668Z,3.77
2017-09-11T07:48:41.203Z,2.70
2017-09-11T07:51:09.534Z,3.58
2017-09-11T07:53:37.745Z,3.07
2017-09-11T07:56:05.441Z,3.80
2017-09-11T07:58:32.964Z,3.03
2017-09-11T08:01:00.518Z,3.07
2017-09-11T08:03:31.099Z,2.60
2017-09-11T08:05:58.604Z,2.93
2017-09-11T08:08:27.083Z,2.97
2017-09-11T08:10:54.749Z,2.90
2017-09-11T08:13:22.263Z,2.97
2017-09-11T08:15:49.805Z,2.77
2017-09-11T08:18:21.395Z,2.27
2017-09-11T08:20:50.639Z,2.42
2017-09-11T08:23:18.202Z,2.63
2017-09-11T08:25:46.478Z,2.00
2017-09-11T08:28:14.146Z,2.30
2017-09-11T08:30:41.691Z,2.30
2017-09-11T08:33:13.034Z,2.67
2017-09-11T08:35:41.695Z,2.40
2017-09-11T08:38:09.273Z,2.05
2017-09-11T08:40:36.871Z,2.13
2017-09-11T08:43:05.176Z,2.57
2017-09-11T08:45:32.720Z,1.98
2017-09-11T08:48:00.255Z,2.50
2017-09-11T08:50:32.018Z,3.40
2017-09-11T08:53:00.313Z,3.75
2017-09-11T08:55:27.811Z,2.35
2017-09-11T08:57:55.330Z,3.87
2017-09-11T09:00:23.475Z,3.42
2017-09-11T09:02:51.128Z,3.00
2017-09-11T09:05:22.125Z,2.87
2017-09-11T09:07:49.636Z,3.08
2017-09-11T09:10:17.148Z,3.43
2017-09-11T09:12:45.432Z,2.93
2017-09-11T09:15:13.783Z,3.47
2017-09-11T09:17:42.080Z,2.75
2017-09-11T09:20:11.758Z,2.77
2017-09-11T09:22:39.313Z,2.07
2017-09-11T09:25:08.573Z,3.15
2017-09-11T09:27:36.091Z,2.53
2017-09-11T09:30:03.620Z,3.08
2017-09-11T09:32:31.232Z,2.47
2017-09-11T09:34:58.733Z,2.50
2017-09-11T09:37:26.783Z,2.62
2017-09-11T09:39:54.343Z,2.83
2017-09-11T09:42:21.892Z,1.93
2017-09-11T09:44:49.448Z,2.50
2017-09-11T09:47:16.975Z,2.70
2017-09-11T09:49:48.355Z,2.37
2017-09-11T09:52:16.114Z,2.63
2017-09-11T09:54:43.621Z,2.70
2017-09-11T09:57:11.279Z,2.53
2017-09-11T09:59:38.867Z,2.35
2017-09-11T10:02:07.146Z,1.20
2017-09-11T10:04:39.563Z,1.90
2017-09-11T10:07:07.102Z,1.80
2017-09-11T10:09:35.447Z,1.48
2017-09-11T10:12:02.999Z,1.40
2017-09-11T10:14:30.552Z,1.53
2017-09-11T10:16:58.073Z,1.57
2017-09-11T10:19:26.567Z,1.77
2017-09-11T10:21:54.806Z,1.67
2017-09-11T10:24:22.307Z,2.60
2017-09-11T10:26:50.025Z,1.77
2017-09-11T10:29:17.532Z,1.73
2017-09-11T10:31:45.291Z,2.33
2017-09-11T10:34:13.747Z,2.00
2017-09-11T10:36:44.292Z,1.60
2017-09-11T10:39:11.795Z,1.60
2017-09-11T10:41:39.306Z,1.50
2017-09-11T10:44:06.814Z,2.00
2017-09-11T10:46:34.357Z,1.83
2017-09-11T10:49:01.894Z,1.33
2017-09-11T10:51:29.432Z,1.67
2017-09-11T10:53:57.599Z,1.80
2017-09-11T10:56:25.108Z,1.77
2017-09-11T10:58:52.686Z,2.07
2017-09-11T11:01:20.200Z,1.97
2017-09-11T11:03:48.036Z,1.77
2017-09-11T11:06:19.226Z,1.90
2017-09-11T11:08:46.808Z,1.30
2017-09-11T11:11:14.337Z,1.75
2017-09-11T11:13:41.839Z,1.70
2017-09-11T11:16:09.386Z,1.30
2017-09-11T11:18:36.918Z,1.62
2017-09-11T11:21:12.253Z,1.97
2017-09-11T11:23:39.832Z,1.70
2017-09-11T11:26:07.342Z,1.20
2017-09-11T11:28:34.894Z,1.90
2017-09-11T11:31:02.404Z,1.60
2017-09-11T11:33:29.920Z,1.30
2017-09-11T11:35:58.277Z,1.50
2017-09-11T11:38:58.540Z,2.13
2017-09-11T11:41:26.915Z,2.05
2017-09-11T11:43:54.642Z,2.00
2017-09-11T11:46:22.143Z,1.93
2017-09-11T11:48:49.644Z,3.67
2017-09-11T11:51:17.663Z,4.20
2017-09-11T11:53:45.219Z,4.47
2017-09-11T11:56:13.507Z,4.00
2017-09-11T11:58:41.835Z,5.17
2017-09-11T12:01:09.985Z,4.33
2017-09-11T12:03:37.492Z,4.90
2017-09-11T12:06:05.003Z,5.10
2017-09-11T12:08:32.580Z,3.40
2017-09-11T12:11:00.115Z,5.05
2017-09-11T12:13:27.632Z,4.00
2017-09-11T12:15:55.180Z,3.80
2017-09-11T12:18:23.663Z,3.07
2017-09-11T12:20:51.176Z,3.40
2017-09-11T12:23:18.678Z,3.37
2017-09-11T12:25:46.190Z,3.07
2017-09-11T12:28:14.472Z,3.13
2017-09-11T12:30:42.917Z,2.80
2017-09-11T12:33:10.422Z,2.50
2017-09-11T12:35:37.965Z,3.70
2017-09-11T12:38:06.231Z,2.70
2017-09-11T12:40:34.549Z,3.23
2017-09-11T12:43:02.074Z,2.53
2017-09-11T12:45:30.383Z,2.80
2017-09-11T12:47:57.964Z,2.43
2017-09-11T12:50:25.492Z,3.33
2017-09-11T12:53:00.752Z,2.87
2017-09-11T12:55:28.251Z,2.37
2017-09-11T12:57:55.759Z,3.03
2017-09-11T13:00:23.300Z,2.50
2017-09-11T13:02:50.795Z,2.40
2017-09-11T13:05:18.322Z,2.58
2017-09-11T13:07:46.352Z,2.80
2017-09-11T13:10:13.940Z,2.28
2017-09-11T13:12:42.224Z,2.00
2017-09-11T13:15:09.724Z,2.90
2017-09-11T13:17:37.770Z,2.50
2017-09-11T13:20:06.744Z,2.42
2017-09-11T13:22:34.247Z,1.37
2017-09-11T13:25:01.752Z,2.23
2017-09-11T13:27:30.988Z,2.43
2017-09-11T13:29:58.494Z,1.75
2017-09-11T13:32:26.011Z,1.40
2017-09-11T13:34:53.571Z,1.70
2017-09-11T13:37:21.081Z,2.23
2017-09-11T13:39:50.076Z,2.10
2017-09-11T13:42:17.630Z,1.70
2017-09-11T13:44:45.171Z,1.60
2017-09-11T13:47:12.676Z,1.70
2017-09-11T13:49:40.187Z,2.03
2017-09-11T13:52:09.427Z,1.60
2017-09-11T13:54:36.950Z,1.30
2017-09-11T13:57:04.460Z,1.83
2017-09-11T13:59:31.964Z,1.85
2017-09-11T14:01:59.497Z,1.93
2017-09-11T14:04:28.484Z,2.03
2017-09-11T14:06:55.983Z,1.85
2017-09-11T14:09:24.251Z,1.90
2017-09-11T14:11:52.687Z,1.60
2017-09-11T14:14:20.989Z,2.47
2017-09-11T14:16:48.546Z,1.90
2017-09-11T14:19:16.975Z,1.87
2017-09-11T14:21:47.699Z,2.12
2017-09-11T14:24:15.371Z,2.00
2017-09-11T14:26:42.905Z,1.67
2017-09-11T14:29:10.495Z,1.70
2017-09-11T14:31:38.008Z,2.57
2017-09-11T14:34:06.476Z,1.48
2017-09-11T14:36:33.992Z,1.77
2017-09-11T14:39:01.560Z,1.83
2017-09-11T14:41:29.131Z,2.23
2017-09-11T14:43:56.684Z,1.80
2017-09-11T14:46:24.192Z,1.90
2017-09-11T14:48:51.690Z,1.57
2017-09-11T14:51:19.210Z,1.53
2017-09-11T14:53:46.707Z,1.50
2017-09-11T14:56:15.129Z,1.90
2017-09-11T14:58:42.663Z,1.85
2017-09-11T15:01:10.959Z,1.50
2017-09-11T15:03:40.392Z,2.00
2017-09-11T15:06:08.159Z,1.53
2017-09-11T15:08:35.803Z,1.53
2017-09-11T15:11:03.331Z,1.50
2017-09-11T15:13:30.833Z,1.53
2017-09-11T15:15:58.942Z,1.37
2017-09-11T15:18:26.447Z,1.33
2017-09-11T15:20:53.992Z,1.33
2017-09-11T15:23:22.259Z,2.20
2017-09-11T15:25:49.796Z,2.00
2017-09-11T15:28:18.558Z,2.00
2017-09-11T15:30:46.288Z,2.23
2017-09-11T15:33:13.798Z,1.97
2017-09-11T15:35:41.815Z,1.47
2017-09-11T15:38:10.111Z,1.63
2017-09-11T15:40:38.379Z,1.20
2017-09-11T15:43:07.571Z,2.07
2017-09-11T15:45:35.855Z,1.70
2017-09-11T15:48:03.717Z,1.47
2017-09-11T15:50:32.190Z,1.67
2017-09-11T15:52:59.751Z,1.90
2017-09-11T15:55:27.277Z,1.90
2017-09-11T15:57:54.791Z,2.03
2017-09-11T16:00:22.311Z,1.37
2017-09-11T16:02:49.843Z,1.60
2017-09-11T16:05:17.756Z,2.17
2017-09-11T16:07:46.491Z,2.05
2017-09-11T16:10:14.608Z,1.80
2017-09-11T16:12:42.171Z,1.30
2017-09-11T16:15:11.021Z,2.53
2017-09-11T16:17:38.585Z,4.07
2017-09-11T16:20:06.100Z,2.83
2017-09-11T16:22:33.631Z,2.23
2017-09-11T16:25:01.139Z,3.20
2017-09-11T16:27:30.392Z,2.45
2017-09-11T16:29:57.887Z,2.10
2017-09-11T16:32:26.200Z,1.67
2017-09-11T16:34:54.319Z,1.86
2017-09-11T16:37:21.868Z,2.40
2017-09-11T16:39:49.835Z,2.60
2017-09-11T16:42:17.337Z,1.83
2017-09-11T16:44:44.877Z,1.93
2017-09-11T16:47:14.191Z,1.87
2017-09-11T16:49:42.461Z,2.67
2017-09-11T16:52:10.771Z,1.33
2017-09-11T16:54:38.271Z,1.93
2017-09-11T16:57:05.823Z,1.62
2017-09-11T16:59:33.845Z,1.57
2017-09-11T17:02:01.355Z,1.90
2017-09-11T17:04:28.862Z,1.50
2017-09-11T17:06:58.073Z,1.53
2017-09-11T17:09:25.576Z,1.60
2017-09-11T17:11:53.097Z,1.65
2017-09-11T17:14:20.650Z,1.50
2017-09-11T17:16:48.159Z,1.27
2017-09-11T17:19:16.679Z,1.57
2017-09-11T17:21:44.943Z,1.60
2017-09-11T17:24:12.459Z,1.43
2017-09-11T17:26:39.963Z,1.90
2017-09-11T17:29:08.239Z,1.63
2017-09-11T17:31:36.055Z,2.10
2017-09-11T17:34:03.560Z,2.58
2017-09-11T17:36:31.103Z,2.33
2017-09-11T17:38:58.736Z,2.33
2017-09-11T17:41:26.253Z,2.10
2017-09-11T17:43:53.818Z,3.05
2017-09-11T17:46:21.341Z,3.77
2017-09-11T17:48:49.378Z,2.67
2017-09-11T17:51:16.900Z,2.75
2017-09-11T17:53:44.452Z,4.40
2017-09-11T17:56:12.715Z,2.30
2017-09-11T17:58:40.215Z,3.00
2017-09-11T18:01:07.739Z,2.37
2017-09-11T18:03:36.028Z,1.50
2017-09-11T18:06:04.376Z,2.43
2017-09-11T18:08:33.574Z,2.77
2017-09-11T18:11:01.080Z,3.00
2017-09-11T18:13:29.361Z,3.17
2017-09-11T18:15:56.879Z,2.93
2017-09-11T18:18:24.404Z,2.93
2017-09-11T18:20:53.500Z,2.97
2017-09-11T18:23:21.008Z,2.83
2017-09-11T18:25:48.518Z,4.70
2017-09-11T18:28:16.939Z,3.17
2017-09-11T18:30:44.475Z,4.05
2017-09-11T18:33:12.791Z,2.97
2017-09-11T18:35:40.323Z,2.50
2017-09-11T18:38:08.623Z,1.80
2017-09-11T18:40:36.615Z,2.97
2017-09-11T18:43:04.887Z,2.20
2017-09-11T18:45:32.396Z,3.33
2017-09-11T18:48:00.860Z,2.72
2017-09-11T18:50:28.403Z,2.33
2017-09-11T18:52:56.015Z,2.37
2017-09-11T18:55:23.591Z,3.53
2017-09-11T18:57:51.088Z,2.10
2017-09-11T19:00:18.613Z,2.47
2017-09-11T19:02:46.127Z,3.08
2017-09-11T19:05:14.451Z,3.05
2017-09-11T19:07:41.999Z,2.67
2017-09-11T19:10:09.522Z,2.60
2017-09-11T19:12:37.112Z,1.90
2017-09-11T19:15:04.611Z,2.27
2017-09-11T19:17:32.112Z,2.20
2017-09-11T19:19:59.645Z,2.90
2017-09-11T19:22:28.840Z,2.27
2017-09-11T19:24:56.392Z,2.25
2017-09-11T19:27:24.663Z,2.70
2017-09-11T19:29:56.452Z,2.60
2017-09-11T19:32:23.956Z,2.57
2017-09-11T19:34:51.639Z,2.90
2017-09-11T19:37:19.148Z,2.40
2017-09-11T19:39:47.584Z,2.43
2017-09-11T19:42:15.918Z,3.20
2017-09-11T19:44:43.430Z,2.65
2017-09-11T19:47:12.656Z,2.17
2017-09-11T19:49:40.172Z,2.20
2017-09-11T19:52:09.911Z,2.07
2017-09-11T19:54:37.532Z,3.17
2017-09-11T19:57:05.091Z,3.50
2017-09-11T19:59:32.667Z,2.25
2017-09-11T20:02:00.950Z,2.40
2017-09-11T20:04:28.450Z,2.80
2017-09-11T20:06:56.630Z,2.20
2017-09-11T20:09:24.159Z,2.77
2017-09-11T20:11:52.428Z,1.97
2017-09-11T20:14:19.936Z,2.03
2017-09-11T20:16:47.931Z,2.50
2017-09-11T20:19:16.469Z,3.30
2017-09-11T20:21:43.975Z,1.60
2017-09-11T20:24:12.320Z,1.93
2017-09-11T20:26:40.758Z,1.40
2017-09-11T20:29:08.271Z,1.77
2017-09-11T20:31:35.764Z,1.43
2017-09-11T20:34:03.312Z,2.10
2017-09-11T20:36:30.812Z,1.70
2017-09-11T20:38:58.320Z,1.58
2017-09-11T20:41:25.846Z,2.10
2017-09-11T20:43:55.208Z,2.37
2017-09-11T20:46:22.720Z,2.37
2017-09-11T20:48:50.226Z,1.53
2017-09-11T20:51:19.443Z,2.17
2017-09-11T20:53:46.943Z,2.72
2017-09-11T20:56:14.486Z,3.12
2017-09-11T20:58:41.987Z,1.65
2017-09-11T21:01:09.547Z,2.03
2017-09-11T21:03:37.804Z,1.63
2017-09-11T21:06:05.317Z,2.20
2017-09-11T21:08:32.867Z,1.97
2017-09-11T21:11:01.163Z,1.80
2017-09-11T21:13:28.719Z,1.87
2017-09-11T21:15:56.229Z,1.40
2017-09-11T21:18:23.767Z,1.73
2017-09-11T21:20:52.619Z,1.70
2017-09-11T21:23:20.123Z,2.15
2017-09-11T21:25:47.639Z,1.80
2017-09-11T21:28:16.879Z,2.60
2017-09-11T21:30:44.379Z,1.87
2017-09-11T21:33:11.886Z,1.37
2017-09-11T21:35:39.396Z,2.10
2017-09-11T21:38:06.891Z,1.77
2017-09-11T21:40:36.083Z,1.20
2017-09-11T21:43:03.603Z,2.23
2017-09-11T21:45:31.135Z,1.50
2017-09-11T21:47:58.650Z,1.90
2017-09-11T21:50:26.187Z,1.65
2017-09-11T21:52:53.720Z,2.10
2017-09-11T21:55:21.236Z,2.00
2017-09-11T21:57:50.003Z,1.95
2017-09-11T22:00:17.507Z,1.67
2017-09-11T22:02:45.011Z,1.70
2017-09-11T22:05:12.527Z,1.70
2017-09-11T22:07:40.033Z,1.60
2017-09-11T22:10:08.207Z,1.77
2017-09-11T22:12:35.717Z,2.67
2017-09-11T22:15:03.239Z,1.80
2017-09-11T22:17:30.748Z,1.93
2017-09-11T22:19:58.268Z,1.20
2017-09-11T22:22:26.712Z,1.60
2017-09-11T22:24:54.223Z,2.53
2017-09-11T22:27:22.140Z,1.60
2017-09-11T22:29:49.692Z,1.70
2017-09-11T22:32:17.192Z,2.47
2017-09-11T22:34:44.700Z,2.03
2017-09-11T22:37:12.205Z,1.85
2017-09-11T22:39:41.403Z,2.77
2017-09-11T22:42:08.915Z,2.00
2017-09-11T22:44:36.422Z,2.47
2017-09-11T22:47:04.736Z,1.43
2017-09-11T22:49:32.252Z,2.40
2017-09-11T22:52:00.683Z,1.42
2017-09-11T22:54:28.210Z,1.80
2017-09-11T22:56:55.767Z,2.00
2017-09-11T22:59:23.296Z,2.15
2017-09-11T23:01:50.795Z,1.53
2017-09-11T23:04:19.990Z,1.93
2017-09-11T23:06:47.492Z,2.07
2017-09-11T23:09:15.009Z,1.60
2017-09-11T23:11:43.313Z,1.20
2017-09-11T23:14:11.752Z,1.50
2017-09-11T23:16:40.051Z,1.80
2017-09-11T23:19:08.136Z,1.70
2017-09-11T23:21:35.651Z,1.98
2017-09-11T23:24:03.648Z,1.70
2017-09-11T23:26:31.203Z,1.80
2017-09-11T23:28:59.475Z,2.13
2017-09-11T23:31:26.975Z,1.60
2017-09-11T23:33:58.118Z,1.63
2017-09-11T23:36:25.634Z,1.50
2017-09-11T23:38:53.908Z,2.00
2017-09-11T23:41:22.203Z,1.55
2017-09-11T23:43:49.787Z,1.57
2017-09-11T23:46:18.011Z,1.50
2017-09-11T23:48:45.523Z,1.30
2017-09-11T23:51:13.043Z,2.47
2017-09-11T23:53:40.595Z,1.30
2017-09-11T23:56:08.871Z,1.20
2017-09-11T23:58:37.176Z,1.67
